Time;durP1;ratioP1;P1;durP2;ratioP2;P2;SDS_P1;SDS_P2;PMS_P1;PMS_P2;Temp;Humidity;BMP_temperature;BMP_pressure;BME280_temperature;BME280_humidity;BME280_pressure;Samples;Min_cycle;Max_cycle;Signal;HPM_P1;HPM_P2
2023/08/25 00:00:55;;;;;;;6.20;4.20;;;;;;;17.92;68.76;96623.66;108476;1275;22543;-84
2023/08/25 00:03:41;;;;;;;6.90;4.60;;;;;;;17.70;68.76;96628.03;108498;1268;27512;-85
2023/08/25 00:06:10;;;;;;;6.10;4.60;;;;;;;17.53;69.13;96636.44;108503;1268;22561;-85
2023/08/25 00:08:39;;;;;;;6.90;4.50;;;;;;;17.38;69.34;96642.74;108434;1276;23297;-84
2023/08/25 00:11:07;;;;;;;5.00;4.50;;;;;;;17.27;69.73;96650.53;108512;1268;22523;-85
2023/08/25 00:13:36;;;;;;;8.30;4.70;;;;;;;17.18;70.12;96648.12;108495;1276;22721;-84
2023/08/25 00:16:05;;;;;;;7.10;5.00;;;;;;;17.23;70.38;96641.89;108467;1276;22647;-84
2023/08/25 00:18:33;;;;;;;7.90;6.10;;;;;;;17.32;70.51;96635.88;108476;1276;24216;-84
2023/08/25 00:21:02;;;;;;;9.50;6.50;;;;;;;17.36;70.74;96638.59;108534;1276;22724;-85
2023/08/25 00:23:30;;;;;;;6.90;5.30;;;;;;;17.43;70.84;96636.16;108504;1276;22542;-84
2023/08/25 00:25:59;;;;;;;9.80;5.70;;;;;;;17.49;70.84;96636.98;108508;1271;22548;-84
2023/08/25 00:28:27;;;;;;;7.20;5.10;;;;;;;17.53;70.84;96633.23;108504;1273;22645;-84
2023/08/25 00:30:55;;;;;;;9.60;5.80;;;;;;;17.58;70.79;96629.42;108490;1276;22579;-84
2023/08/25 00:33:23;;;;;;;8.80;6.00;;;;;;;17.64;70.73;96624.08;108516;1276;22529;-84
2023/08/25 00:35:52;;;;;;;7.70;6.00;;;;;;;17.68;70.70;96619.57;108554;1276;22527;-84
2023/08/25 00:38:20;;;;;;;9.30;6.40;;;;;;;17.70;70.71;96612.92;108522;1276;22546;-84
2023/08/25 00:40:48;;;;;;;9.10;6.00;;;;;;;17.72;70.74;96614.23;108499;1268;24240;-84
2023/08/25 00:43:17;;;;;;;8.40;5.80;;;;;;;17.76;70.79;96617.33;108471;1269;22559;-84
2023/08/25 00:45:45;;;;;;;8.60;6.20;;;;;;;17.79;70.73;96616.96;108493;1276;22591;-85
2023/08/25 00:48:14;;;;;;;8.20;5.40;;;;;;;17.80;70.80;96616.73;108495;1276;22664;-84
2023/08/25 00:50:42;;;;;;;10.00;6.10;;;;;;;17.84;70.78;96611.30;108563;1269;23993;-84
2023/08/25 00:53:12;;;;;;;7.20;5.00;;;;;;;17.89;70.77;96615.27;108541;1276;22521;-84
2023/08/25 00:55:41;;;;;;;9.10;6.10;;;;;;;17.93;70.57;96617.36;108675;1274;24141;-85
2023/08/25 00:58:13;;;;;;;8.80;5.40;;;;;;;17.98;70.53;96615.70;108527;1276;22563;-84
2023/08/25 01:00:44;;;;;;;10.30;5.20;;;;;;;17.99;70.51;96618.25;108542;1273;22760;-84
2023/08/25 01:03:12;;;;;;;9.90;6.20;;;;;;;18.00;70.43;96612.40;108509;1268;24288;-84
2023/08/25 01:05:41;;;;;;;8.20;5.40;;;;;;;18.02;70.48;96606.56;108485;1268;25341;-84
2023/08/25 01:08:09;;;;;;;8.30;5.60;;;;;;;18.01;70.44;96606.95;108499;1276;22536;-84
2023/08/25 01:10:45;;;;;;;7.20;5.60;;;;;;;18.03;70.48;96605.33;108519;1269;22527;-83
2023/08/25 01:13:20;;;;;;;8.00;5.80;;;;;;;18.06;70.48;96606.89;108534;1276;22538;-84
2023/08/25 01:15:53;;;;;;;7.50;5.50;;;;;;;18.06;70.41;96606.06;108552;1274;25278;-84
2023/08/25 01:18:25;;;;;;;7.10;5.60;;;;;;;18.05;70.46;96603.39;108519;1276;23304;-83
2023/08/25 01:20:55;;;;;;;10.70;5.40;;;;;;;17.94;70.37;96596.86;108538;1276;22632;-83
2023/08/25 01:23:35;;;;;;;6.20;5.30;;;;;;;17.79;70.59;96593.67;108550;1276;22688;-84
2023/08/25 01:26:04;;;;;;;6.20;4.80;;;;;;;17.62;70.95;96592.44;108557;1276;22537;-84
2023/08/25 01:28:32;;;;;;;8.00;5.90;;;;;;;17.52;71.24;96590.31;108532;1276;24492;-84
2023/08/25 01:31:00;;;;;;;8.10;5.80;;;;;;;17.48;71.64;96591.30;108556;1276;22547;-84
2023/08/25 01:33:30;;;;;;;8.60;5.90;;;;;;;17.49;71.80;96587.95;108496;1276;22541;-83
2023/08/25 01:36:08;;;;;;;10.50;6.20;;;;;;;17.46;71.91;96589.10;108539;1276;22547;-83
2023/08/25 01:38:43;;;;;;;7.10;5.80;;;;;;;17.51;72.08;96582.91;108548;1276;25247;-84
2023/08/25 01:41:18;;;;;;;10.40;5.80;;;;;;;17.59;72.18;96580.45;108554;1273;22582;-84
2023/08/25 01:43:50;;;;;;;6.90;6.00;;;;;;;17.65;72.04;96583.91;108470;1276;22565;-84
2023/08/25 01:46:19;;;;;;;9.40;6.60;;;;;;;17.69;72.14;96585.02;108529;1276;25237;-84
2023/08/25 01:48:51;;;;;;;8.60;5.90;;;;;;;17.72;72.06;96583.58;108516;1276;22530;-84
2023/08/25 01:51:19;;;;;;;7.80;5.80;;;;;;;17.71;72.03;96578.95;108546;1269;22553;-84
2023/08/25 01:53:54;;;;;;;10.00;6.50;;;;;;;17.67;71.95;96583.53;108518;1273;22541;-83
2023/08/25 01:56:23;;;;;;;10.30;6.00;;;;;;;17.63;72.16;96578.63;108476;1274;24281;-84
2023/08/25 01:58:51;;;;;;;9.40;6.10;;;;;;;17.64;72.32;96579.73;108492;1275;22541;-84
2023/08/25 02:01:20;;;;;;;7.90;6.00;;;;;;;17.64;72.31;96582.88;108557;1276;22546;-84
2023/08/25 02:03:48;;;;;;;8.70;6.30;;;;;;;17.62;72.30;96581.66;108538;1276;23494;-83
2023/08/25 02:06:16;;;;;;;8.10;5.30;;;;;;;17.60;72.35;96581.17;108512;1276;22563;-83
2023/08/25 02:08:44;;;;;;;8.30;5.90;;;;;;;17.55;72.41;96583.20;108509;1276;22640;-83
2023/08/25 02:11:12;;;;;;;9.30;6.60;;;;;;;17.48;72.46;96581.42;108551;1268;22529;-84
2023/08/25 02:13:40;;;;;;;7.80;5.40;;;;;;;17.47;72.68;96579.48;108563;1276;22523;-84
2023/08/25 02:16:08;;;;;;;9.60;6.00;;;;;;;17.46;72.68;96578.19;108547;1274;25274;-84
2023/08/25 02:18:39;;;;;;;9.60;6.50;;;;;;;17.45;72.79;96571.77;108550;1276;22574;-84
2023/08/25 02:21:08;;;;;;;7.80;5.90;;;;;;;17.42;72.88;96564.06;108549;1276;22563;-84
2023/08/25 02:23:38;;;;;;;7.60;5.10;;;;;;;17.39;73.13;96563.67;108507;1276;22531;-84
2023/08/25 02:26:06;;;;;;;10.10;6.10;;;;;;;17.36;73.22;96560.10;108539;1268;22589;-84
2023/08/25 02:28:37;;;;;;;7.50;6.10;;;;;;;17.33;73.47;96567.41;108526;1276;25081;-84
2023/08/25 02:31:09;;;;;;;7.80;5.80;;;;;;;17.33;73.68;96560.68;108537;1268;22551;-84
2023/08/25 02:33:38;;;;;;;8.40;6.00;;;;;;;17.32;73.83;96554.56;108550;1276;25407;-83
2023/08/25 02:36:06;;;;;;;10.50;6.50;;;;;;;17.29;73.98;96556.80;108516;1273;22606;-84
2023/08/25 02:38:35;;;;;;;9.10;6.40;;;;;;;17.27;74.19;96553.83;108557;1269;22527;-83
2023/08/25 02:41:06;;;;;;;6.70;5.50;;;;;;;17.25;74.22;96536.24;108568;1276;25450;-83
2023/08/25 02:43:37;;;;;;;9.30;6.40;;;;;;;17.25;74.49;96525.88;108543;1276;22577;-83
2023/08/25 02:46:06;;;;;;;7.60;6.50;;;;;;;17.21;74.62;96519.19;108525;1276;22518;-83
2023/08/25 02:48:34;;;;;;;8.90;6.30;;;;;;;17.19;74.73;96511.89;108552;1269;25343;-84
2023/08/25 02:51:03;;;;;;;7.20;5.70;;;;;;;17.15;74.93;96508.23;108521;1273;22527;-84
2023/08/25 02:53:32;;;;;;;9.00;6.90;;;;;;;17.15;75.21;96503.85;108560;1268;22524;-84
2023/08/25 02:56:02;;;;;;;9.70;6.00;;;;;;;17.19;75.36;96499.50;108565;1276;22527;-84
2023/08/25 02:58:30;;;;;;;7.60;5.90;;;;;;;17.28;75.55;96502.66;108563;1273;22525;-84
2023/08/25 03:00:59;;;;;;;8.90;6.50;;;;;;;17.35;75.47;96492.55;108546;1269;22553;-84
2023/08/25 03:03:28;;;;;;;10.70;6.20;;;;;;;17.39;75.29;96488.70;108561;1276;22541;-83
2023/08/25 03:05:59;;;;;;;8.10;6.20;;;;;;;17.38;75.20;96485.73;108529;1276;23053;-84
2023/08/25 03:08:27;;;;;;;7.30;5.60;;;;;;;17.34;75.12;96480.03;108481;1276;22948;-84
2023/08/25 03:10:55;;;;;;;9.20;6.00;;;;;;;17.33;75.21;96480.90;108512;1273;22536;-84
2023/08/25 03:13:24;;;;;;;7.80;6.20;;;;;;;17.33;75.22;96481.52;108522;1276;22520;-84
2023/08/25 03:15:54;;;;;;;9.50;6.50;;;;;;;17.37;75.28;96491.14;108499;1273;23213;-84
2023/08/25 03:18:22;;;;;;;7.90;5.90;;;;;;;17.41;75.26;96493.60;108511;1276;22535;-84
2023/08/25 03:20:52;;;;;;;8.80;5.60;;;;;;;17.48;75.27;96492.18;108533;1271;23498;-83
2023/08/25 03:23:21;;;;;;;7.20;6.00;;;;;;;17.53;75.17;96487.01;108563;1276;22537;-84
2023/08/25 03:25:49;;;;;;;9.20;6.40;;;;;;;17.55;75.01;96490.08;108545;1269;22512;-83
2023/08/25 03:28:17;;;;;;;9.80;5.90;;;;;;;17.57;74.90;96489.46;108530;1261;22562;-83
2023/08/25 03:30:45;;;;;;;9.00;5.90;;;;;;;17.60;74.86;96491.18;108557;1276;22550;-83
2023/08/25 03:33:14;;;;;;;7.70;5.80;;;;;;;17.67;74.77;96497.96;108545;1276;22529;-84
2023/08/25 03:35:42;;;;;;;7.80;6.10;;;;;;;17.74;74.60;96499.95;108523;1274;22533;-84
2023/08/25 03:38:10;;;;;;;6.20;5.20;;;;;;;17.78;74.42;96510.75;108536;1276;23343;-83
2023/08/25 03:40:38;;;;;;;7.40;5.80;;;;;;;17.79;74.22;96513.70;108550;1274;24256;-84
2023/08/25 03:43:07;;;;;;;9.20;6.30;;;;;;;17.80;74.07;96516.95;108545;1276;22554;-83
2023/08/25 03:45:36;;;;;;;8.20;5.90;;;;;;;17.84;73.97;96521.66;108500;1269;22536;-84
2023/08/25 03:48:05;;;;;;;;;;;;;;;17.87;73.75;96525.41;108513;1271;22521;-83
2023/08/25 03:50:33;;;;;;;7.50;6.00;;;;;;;17.89;73.60;96525.70;108514;1269;24359;-84
2023/08/25 03:53:02;;;;;;;9.00;6.10;;;;;;;17.93;73.46;96529.47;108539;1270;22529;-83
2023/08/25 03:55:30;;;;;;;7.10;5.30;;;;;;;17.99;73.34;96534.58;108558;1276;22540;-83
2023/08/25 03:57:58;;;;;;;8.10;6.30;;;;;;;18.08;73.29;96531.77;108544;1276;23951;-84
2023/08/25 04:00:27;;;;;;;9.90;6.40;;;;;;;18.21;73.11;96534.70;108541;1268;22539;-84
2023/08/25 04:02:56;;;;;;;7.50;6.10;;;;;;;18.29;72.88;96536.27;108546;1274;22661;-83
2023/08/25 04:05:24;;;;;;;9.20;6.10;;;;;;;18.35;72.79;96530.73;108572;1276;22550;-84
2023/08/25 04:07:53;;;;;;;8.00;6.10;;;;;;;18.41;72.55;96530.10;108536;1269;22538;-83
2023/08/25 04:10:22;;;;;;;8.40;5.30;;;;;;;18.48;72.42;96528.81;108549;1269;22521;-83
2023/08/25 04:12:50;;;;;;;7.40;5.80;;;;;;;18.54;72.25;96523.56;108549;1276;22586;-84
2023/08/25 04:15:20;;;;;;;11.40;6.20;;;;;;;18.58;72.12;96530.86;108528;1276;22563;-84
2023/08/25 04:17:49;;;;;;;8.00;5.60;;;;;;;18.62;71.97;96528.23;108598;1276;22527;-83
2023/08/25 04:20:18;;;;;;;8.10;6.20;;;;;;;18.67;71.85;96532.43;108571;1276;22634;-84
2023/08/25 04:22:47;;;;;;;6.70;5.80;;;;;;;18.77;71.71;96540.48;108593;1276;22718;-83
2023/08/25 04:25:15;;;;;;;7.60;5.70;;;;;;;18.89;71.50;96550.73;108533;1276;25217;-83
2023/08/25 04:27:43;;;;;;;6.20;5.60;;;;;;;19.16;71.59;96558.13;108530;1273;22535;-83
2023/08/25 04:30:13;;;;;;;7.20;5.60;;;;;;;19.53;71.25;96555.42;108522;1269;22584;-84
2023/08/25 04:32:41;;;;;;;9.10;6.10;;;;;;;19.78;70.32;96553.14;108542;1276;24315;-84
2023/08/25 04:35:12;;;;;;;8.00;6.00;;;;;;;20.00;70.00;96545.95;108546;1276;23418;-83
2023/08/25 04:37:43;;;;;;;9.00;6.00;;;;;;;20.23;69.61;96538.30;108543;1276;22770;-83
2023/08/25 04:40:12;;;;;;;7.50;5.70;;;;;;;20.58;69.63;96542.91;108576;1276;22543;-84
2023/08/25 04:42:41;;;;;;;8.50;5.70;;;;;;;20.77;68.27;96537.23;108557;1276;22542;-83
2023/08/25 04:45:12;;;;;;;7.30;5.70;;;;;;;20.70;67.41;96528.21;108561;1276;24248;-84
2023/08/25 04:47:40;;;;;;;8.10;6.10;;;;;;;20.71;67.43;96516.93;108486;1276;25362;-83
2023/08/25 04:50:09;;;;;;;8.60;6.40;;;;;;;20.82;67.54;96508.50;108543;1272;23984;-84
2023/08/25 04:52:38;;;;;;;8.00;5.70;;;;;;;20.77;66.78;96502.67;108574;1275;22603;-84
2023/08/25 04:55:10;;;;;;;8.00;5.70;;;;;;;20.62;66.73;96502.77;108542;1273;22550;-84
2023/08/25 04:57:39;;;;;;;7.10;5.50;;;;;;;20.73;66.99;96511.11;108593;1275;22532;-80
2023/08/25 05:00:10;;;;;;;8.60;5.10;;;;;;;20.81;66.49;96507.45;108561;1269;22546;-84
2023/08/25 05:02:38;;;;;;;7.90;5.90;;;;;;;20.89;66.42;96501.91;108476;1273;22573;-84
2023/08/25 05:05:11;;;;;;;7.30;5.60;;;;;;;21.15;66.12;96497.52;108556;1276;22526;-84
2023/08/25 05:07:41;;;;;;;8.50;5.60;;;;;;;21.41;65.91;96493.09;108575;1276;23050;-82
2023/08/25 05:10:10;;;;;;;9.10;5.50;;;;;;;21.76;65.35;96495.15;108527;1269;22552;-83
2023/08/25 05:12:39;;;;;;;7.70;5.70;;;;;;;21.82;64.61;96488.96;108562;1276;22554;-83
2023/08/25 05:15:10;;;;;;;9.10;5.70;;;;;;;21.78;64.23;96484.70;108493;1273;24850;-83
2023/08/25 05:17:39;;;;;;;7.90;5.30;;;;;;;21.69;64.04;96488.37;108535;1276;22525;-82
2023/08/25 05:20:10;;;;;;;7.70;5.70;;;;;;;21.51;63.83;96489.84;108506;1269;22543;-83
2023/08/25 05:22:41;;;;;;;8.30;5.40;;;;;;;21.67;64.48;96486.17;108453;1274;22552;-83
2023/08/25 05:25:10;;;;;;;6.10;5.30;;;;;;;22.09;64.45;96483.73;108528;1269;22548;-83
2023/08/25 05:27:38;;;;;;;6.90;5.60;;;;;;;22.40;64.11;96479.50;108456;1276;22531;-80
2023/08/25 05:30:08;;;;;;;7.20;5.80;;;;;;;22.80;63.80;96477.14;108553;1269;22527;-84
2023/08/25 05:32:37;;;;;;;9.10;5.60;;;;;;;22.84;62.17;96476.45;108479;1276;22534;-84
2023/08/25 05:35:07;;;;;;;7.00;5.70;;;;;;;22.88;62.14;96473.28;108528;1276;22542;-83
2023/08/25 05:37:35;;;;;;;7.20;5.60;;;;;;;22.98;61.71;96466.02;108548;1276;22538;-83
2023/08/25 05:40:05;;;;;;;8.00;5.20;;;;;;;22.93;61.65;96462.86;108532;1272;22527;-83
2023/08/25 05:42:35;;;;;;;8.90;5.40;;;;;;;23.24;61.89;96456.60;108540;1273;22528;-83
2023/08/25 05:45:05;;;;;;;7.00;4.80;;;;;;;23.37;61.23;96450.41;108541;1270;22527;-83
2023/08/25 05:47:33;;;;;;;7.30;5.40;;;;;;;23.33;61.02;96453.27;108560;1276;22696;-81
2023/08/25 05:50:02;;;;;;;9.10;6.10;;;;;;;23.43;61.40;96449.77;108526;1274;23013;-76
2023/08/25 05:52:30;;;;;;;5.80;4.80;;;;;;;23.65;61.26;96452.67;108516;1269;22547;-76
2023/08/25 05:54:59;;;;;;;7.70;5.60;;;;;;;23.75;60.62;96448.21;108537;1276;22523;-76
2023/08/25 05:57:27;;;;;;;6.60;5.10;;;;;;;23.49;60.02;96443.13;108495;1273;22570;-76
2023/08/25 05:59:59;;;;;;;6.70;5.30;;;;;;;23.31;60.14;96441.87;108460;1276;25377;-76
2023/08/25 06:02:27;;;;;;;6.70;5.20;;;;;;;23.25;60.36;96438.71;108504;1276;22535;-75
2023/08/25 06:04:56;;;;;;;9.60;5.70;;;;;;;22.99;59.89;96433.98;108543;1276;22961;-76
2023/08/25 06:07:24;;;;;;;7.10;5.20;;;;;;;22.71;59.90;96436.66;108488;1273;22524;-76
2023/08/25 06:09:53;;;;;;;8.90;5.50;;;;;;;22.32;60.14;96433.21;108460;1276;26012;-76
2023/08/25 06:12:21;;;;;;;6.60;5.70;;;;;;;22.22;60.99;96428.85;108517;1276;25358;-76
2023/08/25 06:14:52;;;;;;;8.10;5.50;;;;;;;22.30;61.25;96431.48;108519;1268;25343;-76
2023/08/25 06:17:20;;;;;;;8.40;5.50;;;;;;;22.42;61.61;96420.20;108522;1276;22535;-81
2023/08/25 06:19:48;;;;;;;7.00;5.30;;;;;;;22.67;61.45;96426.11;108500;1276;22659;-81
2023/08/25 06:22:17;;;;;;;6.50;5.50;;;;;;;22.82;61.46;96427.61;108503;1276;24312;-81
2023/08/25 06:24:45;;;;;;;7.80;5.80;;;;;;;22.98;61.61;96422.14;108526;1276;22548;-81
2023/08/25 06:27:14;;;;;;;8.60;5.60;;;;;;;23.26;61.50;96422.55;108539;1268;24394;-81
2023/08/25 06:29:43;;;;;;;8.50;5.60;;;;;;;23.41;61.11;96418.14;108501;1275;22528;-82
2023/08/25 06:32:13;;;;;;;7.20;5.20;;;;;;;23.28;60.63;96413.94;108506;1273;22548;-81
2023/08/25 06:34:42;;;;;;;7.10;5.60;;;;;;;23.15;60.64;96408.18;108543;1273;22543;-81
2023/08/25 06:37:11;;;;;;;7.20;5.10;;;;;;;22.91;60.56;96403.48;108561;1273;22565;-81
2023/08/25 06:39:40;;;;;;;7.50;5.40;;;;;;;22.68;60.63;96401.25;108507;1274;21968;-81
2023/08/25 06:42:09;;;;;;;8.60;5.50;;;;;;;22.46;60.91;96400.42;108515;1276;22533;-81
2023/08/25 06:44:37;;;;;;;7.20;5.70;;;;;;;22.37;61.26;96404.20;108544;1276;22525;-81
2023/08/25 06:47:06;;;;;;;6.30;5.60;;;;;;;22.34;61.44;96402.75;108499;1276;22533;-81
2023/08/25 06:49:35;;;;;;;8.00;6.00;;;;;;;22.31;61.51;96403.70;108486;1273;23698;-82
2023/08/25 06:52:04;;;;;;;6.70;5.50;;;;;;;22.28;61.74;96398.10;108544;1271;24290;-80
2023/08/25 06:54:33;;;;;;;6.40;5.00;;;;;;;22.26;62.17;96398.84;108534;1276;22529;-80
2023/08/25 06:57:02;;;;;;;9.50;5.20;;;;;;;22.26;62.21;96399.77;108514;1276;24279;-81
2023/08/25 06:59:31;;;;;;;7.30;5.30;;;;;;;22.31;62.61;96400.40;108564;1274;22546;-81
2023/08/25 07:01:59;;;;;;;7.40;5.80;;;;;;;22.44;63.08;96395.44;108526;1276;22590;-81
2023/08/25 07:04:28;;;;;;;8.30;5.60;;;;;;;22.58;63.44;96387.73;108496;1275;22539;-81
2023/08/25 07:06:56;;;;;;;7.00;5.70;;;;;;;22.74;63.39;96384.89;108470;1275;22567;-81
2023/08/25 07:09:25;;;;;;;7.50;5.50;;;;;;;22.88;63.36;96383.44;108449;1276;22559;-81
2023/08/25 07:11:54;;;;;;;7.50;5.60;;;;;;;23.05;63.34;96380.31;108545;1273;22536;-81
2023/08/25 07:14:23;;;;;;;7.70;5.90;;;;;;;23.14;63.09;96381.74;108515;1274;22659;-81
2023/08/25 07:16:52;;;;;;;6.30;5.70;;;;;;;23.10;63.12;96384.24;108459;1276;22531;-81
2023/08/25 07:19:20;;;;;;;;;;;;;;;22.96;63.02;96383.34;108522;1276;23801;-82
2023/08/25 07:21:50;;;;;;;7.90;5.40;;;;;;;22.83;63.13;96374.02;108531;1275;22531;-81
2023/08/25 07:24:20;;;;;;;7.00;5.80;;;;;;;22.69;63.34;96367.98;108596;1276;22527;-81
2023/08/25 07:26:50;;;;;;;6.80;5.60;;;;;;;22.55;63.64;96362.14;108497;1273;23518;-81
2023/08/25 07:29:20;;;;;;;9.20;5.90;;;;;;;22.45;63.96;96371.77;108391;1275;25924;-81
2023/08/25 07:31:53;;;;;;;7.50;5.50;;;;;;;22.39;64.13;96366.02;108581;1266;22576;-81
2023/08/25 07:34:22;;;;;;;8.10;6.10;;;;;;;22.32;64.27;96365.38;108506;1273;22521;-81
2023/08/25 07:36:53;;;;;;;7.60;6.00;;;;;;;22.28;64.35;96361.14;108501;1274;22530;-80
2023/08/25 07:39:23;;;;;;;7.50;5.80;;;;;;;22.26;64.62;96362.42;108549;1275;22528;-77
2023/08/25 07:41:52;;;;;;;7.90;6.00;;;;;;;22.28;64.79;96364.08;108592;1276;25447;-76
2023/08/25 07:44:21;;;;;;;8.60;5.80;;;;;;;22.32;64.91;96369.62;108506;1273;22599;-76
2023/08/25 07:46:51;;;;;;;9.70;6.40;;;;;;;22.37;65.00;96368.70;108436;1269;25379;-76
2023/08/25 07:49:20;;;;;;;9.40;5.90;;;;;;;22.41;64.79;96380.42;108534;1276;22528;-77
2023/08/25 07:51:48;;;;;;;7.90;6.00;;;;;;;22.44;64.63;96376.77;108579;1269;22721;-76
2023/08/25 07:54:17;;;;;;;8.20;6.10;;;;;;;22.42;64.57;96377.76;108556;1276;22958;-76
2023/08/25 07:56:46;;;;;;;8.00;6.60;;;;;;;22.41;64.80;96379.28;108503;1274;25342;-76
2023/08/25 07:59:15;;;;;;;7.30;6.00;;;;;;;22.39;64.75;96377.55;108519;1276;25394;-76
2023/08/25 08:01:43;;;;;;;8.20;6.20;;;;;;;22.35;64.89;96375.83;108533;1276;23001;-76
2023/08/25 08:04:12;;;;;;;8.70;5.80;;;;;;;22.31;65.33;96380.48;108519;1275;22554;-76
2023/08/25 08:06:41;;;;;;;10.40;6.40;;;;;;;22.33;65.59;96382.30;108529;1273;22527;-77
2023/08/25 08:09:10;;;;;;;9.70;5.90;;;;;;;22.37;65.78;96380.18;108496;1272;22601;-76
2023/08/25 08:11:39;;;;;;;9.70;5.70;;;;;;;22.39;65.88;96386.27;108545;1276;23011;-76
2023/08/25 08:14:08;;;;;;;8.30;6.40;;;;;;;22.41;65.91;96398.95;108564;1274;24279;-77
2023/08/25 08:16:37;;;;;;;10.20;6.80;;;;;;;22.40;65.96;96401.24;108523;1275;24192;-77
2023/08/25 08:19:06;;;;;;;8.30;6.60;;;;;;;22.37;66.03;96408.20;108489;1276;22762;-76
2023/08/25 08:21:36;;;;;;;9.80;7.10;;;;;;;22.33;66.11;96404.67;108535;1276;24280;-76
2023/08/25 08:24:09;;;;;;;10.00;7.50;;;;;;;22.32;66.48;96403.80;108588;1276;22582;-76
2023/08/25 08:26:41;;;;;;;8.90;7.50;;;;;;;22.34;66.86;96404.84;108501;1276;22574;-77
2023/08/25 08:29:13;;;;;;;11.00;7.20;;;;;;;22.37;67.33;96407.43;108547;1272;24366;-76
2023/08/25 08:31:44;;;;;;;11.10;7.20;;;;;;;22.40;67.60;96411.29;108604;1276;24353;-77
2023/08/25 08:34:16;;;;;;;12.60;7.20;;;;;;;22.37;67.76;96406.99;108589;1265;22534;-76
2023/08/25 08:36:49;;;;;;;10.80;6.60;;;;;;;22.31;67.80;96406.64;108587;1273;24250;-77
2023/08/25 08:39:19;;;;;;;7.70;6.80;;;;;;;22.23;68.06;96399.78;108514;1274;22671;-76
2023/08/25 08:41:51;;;;;;;8.90;6.80;;;;;;;22.16;68.02;96393.80;108552;1276;22558;-76
2023/08/25 08:44:22;;;;;;;9.10;6.70;;;;;;;22.12;68.07;96393.43;108618;1274;24215;-76
2023/08/25 08:46:54;;;;;;;8.00;6.60;;;;;;;22.08;68.09;96401.27;108565;1276;22554;-77
2023/08/25 08:49:26;;;;;;;8.20;6.70;;;;;;;22.05;68.15;96403.59;108528;1276;26041;-76
2023/08/25 08:51:59;;;;;;;12.00;7.10;;;;;;;22.03;68.26;96408.03;108554;1274;22544;-77
2023/08/25 08:54:33;;;;;;;8.80;7.10;;;;;;;22.04;68.48;96410.35;108558;1273;22513;-77
2023/08/25 08:57:07;;;;;;;8.50;6.90;;;;;;;22.05;68.47;96408.59;108531;1272;22617;-77
2023/08/25 08:59:40;;;;;;;9.70;6.50;;;;;;;22.05;68.61;96412.25;108525;1276;24236;-77
2023/08/25 09:02:15;;;;;;;8.40;6.00;;;;;;;22.05;68.86;96414.55;108586;1276;25377;-76
2023/08/25 09:04:47;;;;;;;9.40;6.70;;;;;;;22.06;68.81;96415.05;108542;1276;27783;-75
2023/08/25 09:07:22;;;;;;;8.00;6.60;;;;;;;22.07;68.89;96410.83;108567;1276;25517;-75
2023/08/25 09:09:55;;;;;;;9.00;6.80;;;;;;;22.08;68.74;96405.59;108499;1276;22528;-75
2023/08/25 09:12:26;;;;;;;9.40;6.00;;;;;;;22.08;68.61;96400.42;108574;1271;22519;-75
2023/08/25 09:14:57;;;;;;;6.90;5.70;;;;;;;22.08;68.53;96397.87;108499;1276;22579;-74
2023/08/25 09:17:28;;;;;;;8.10;6.80;;;;;;;22.07;68.52;96402.17;108515;1273;22541;-75
2023/08/25 09:20:08;;;;;;;7.70;6.40;;;;;;;22.05;68.55;96400.43;108481;1274;24265;-76
2023/08/25 09:22:50;;;;;;;8.90;6.60;;;;;;;22.03;68.48;96402.77;108507;1276;25314;-75
2023/08/25 09:25:22;;;;;;;9.40;6.70;;;;;;;22.02;68.45;96403.92;108494;1268;24645;-75
2023/08/25 09:27:58;;;;;;;9.90;7.30;;;;;;;22.04;68.47;96403.10;108532;1275;22531;-75
2023/08/25 09:30:39;;;;;;;11.10;6.60;;;;;;;22.07;68.58;96404.73;108484;1273;24224;-75
2023/08/25 09:33:10;;;;;;;7.70;6.00;;;;;;;22.15;68.68;96402.03;108507;1276;22551;-83
2023/08/25 09:35:41;;;;;;;16.20;12.50;;;;;;;22.22;68.78;96404.40;108511;1270;22529;-83
2023/08/25 09:38:22;;;;;;;8.10;6.90;;;;;;;22.36;68.70;96409.81;108558;1276;22559;-83
2023/08/25 09:40:54;;;;;;;8.90;6.70;;;;;;;22.50;68.64;96403.44;108500;1257;22685;-83
2023/08/25 09:43:31;;;;;;;10.40;8.30;;;;;;;22.69;69.02;96402.41;108513;1269;22560;-83
2023/08/25 09:46:01;;;;;;;11.60;8.70;;;;;;;22.98;68.99;96398.66;108499;1276;26467;-83
2023/08/25 09:48:34;;;;;;;20.70;18.50;;;;;;;23.28;68.75;96405.36;108517;1269;23852;-83
2023/08/25 09:51:07;;;;;;;10.70;7.70;;;;;;;23.47;68.10;96404.52;108545;1274;24221;-83
2023/08/25 09:53:38;;;;;;;8.90;7.10;;;;;;;23.56;67.69;96397.33;108511;1276;22527;-83
2023/08/25 09:56:08;;;;;;;9.90;7.50;;;;;;;23.68;67.32;96400.04;108511;1270;22525;-83
2023/08/25 09:58:38;;;;;;;9.00;6.50;;;;;;;23.75;67.09;96399.58;108441;1270;22534;-82
2023/08/25 10:01:08;;;;;;;7.60;6.40;;;;;;;23.87;66.91;96396.39;108542;1276;24533;-83
2023/08/25 10:03:38;;;;;;;9.80;7.30;;;;;;;23.94;66.36;96393.38;108576;1276;26455;-83
2023/08/25 10:06:10;;;;;;;7.20;6.50;;;;;;;24.06;66.42;96392.52;108463;1276;25393;-83
2023/08/25 10:08:39;;;;;;;8.60;6.80;;;;;;;24.23;66.38;96386.96;108476;1276;22542;-83
2023/08/25 10:11:11;;;;;;;8.90;6.80;;;;;;;24.40;65.94;96380.88;108509;1269;22534;-82
2023/08/25 10:13:42;;;;;;;9.70;6.60;;;;;;;24.55;65.83;96381.39;108508;1276;22643;-83
2023/08/25 10:16:12;;;;;;;10.00;6.80;;;;;;;24.68;64.86;96377.88;108486;1273;22572;-83
2023/08/25 10:18:47;;;;;;;10.00;8.10;;;;;;;24.78;64.67;96380.50;108515;1276;22547;-83
2023/08/25 10:21:19;;;;;;;13.10;8.00;;;;;;;24.92;64.76;96380.07;108515;1276;22535;-83
2023/08/25 10:23:54;;;;;;;7.70;6.40;;;;;;;25.03;64.31;96377.61;108559;1272;22585;-83
2023/08/25 10:26:25;;;;;;;8.70;6.80;;;;;;;25.10;63.83;96381.46;108442;1268;22571;-79
2023/08/25 10:28:53;;;;;;;;;;;;;;;25.12;63.43;96379.30;108450;1276;22504;-76
2023/08/25 10:31:22;;;;;;;8.00;6.60;;;;;;;25.07;63.30;96376.80;108466;1276;25658;-76
2023/08/25 10:33:52;;;;;;;9.70;7.20;;;;;;;25.02;63.17;96375.52;108514;1276;25447;-78
2023/08/25 10:36:23;;;;;;;8.90;6.90;;;;;;;25.02;63.09;96374.11;108555;1273;22540;-78
2023/08/25 10:39:10;;;;;;;10.40;7.00;;;;;;;25.04;63.02;96369.55;108384;1271;22527;-80
2023/08/25 10:41:42;;;;;;;8.60;6.60;;;;;;;25.11;63.32;96369.52;108594;1274;23844;-81
2023/08/25 10:44:21;;;;;;;11.30;8.40;;;;;;;25.20;63.51;96371.91;108523;1269;23070;-81
2023/08/25 10:46:51;;;;;;;9.00;7.00;;;;;;;25.25;63.28;96370.93;108585;1273;22522;-81
2023/08/25 10:49:20;;;;;;;10.00;7.60;;;;;;;25.28;63.12;96363.89;108533;1276;22541;-80
2023/08/25 10:51:48;;;;;;;10.40;7.80;;;;;;;25.32;63.43;96361.27;108579;1276;22531;-81
2023/08/25 10:54:18;;;;;;;10.30;7.30;;;;;;;25.40;63.43;96356.52;108568;1276;22551;-81
2023/08/25 10:56:47;;;;;;;8.50;6.80;;;;;;;25.53;63.36;96358.66;108548;1270;22587;-81
2023/08/25 10:59:15;;;;;;;10.30;7.10;;;;;;;25.64;63.33;96351.58;108526;1276;22534;-81
2023/08/25 11:01:57;;;;;;;8.30;7.10;;;;;;;25.73;62.98;96345.42;108489;1273;22736;-80
2023/08/25 11:04:29;;;;;;;7.90;6.20;;;;;;;25.80;62.65;96340.95;108613;1269;22543;-80
2023/08/25 11:07:02;;;;;;;8.00;7.20;;;;;;;25.82;62.69;96342.82;108448;1269;25014;-80
2023/08/25 11:09:33;;;;;;;11.00;7.60;;;;;;;25.88;62.52;96342.04;108440;1276;22520;-81
2023/08/25 11:12:04;;;;;;;11.40;7.60;;;;;;;25.95;62.51;96339.67;108467;1270;22595;-81
2023/08/25 11:14:35;;;;;;;12.60;7.30;;;;;;;26.01;62.56;96335.87;108483;1276;22537;-81
2023/08/25 11:17:06;;;;;;;7.90;7.00;;;;;;;26.10;62.72;96341.41;108326;1276;24244;-81
2023/08/25 11:19:37;;;;;;;10.90;7.10;;;;;;;26.20;62.67;96339.64;108626;1272;24398;-81
2023/08/25 11:22:09;;;;;;;9.90;6.70;;;;;;;26.27;62.08;96337.94;108477;1276;22653;-81
2023/08/25 11:24:38;;;;;;;8.30;7.10;;;;;;;26.28;61.90;96338.55;108370;1270;24386;-81
2023/08/25 11:27:10;;;;;;;8.80;7.20;;;;;;;26.32;62.02;96337.86;108299;1276;22535;-83
2023/08/25 11:29:43;;;;;;;14.60;8.70;;;;;;;26.37;61.63;96342.02;108488;1270;22544;-82
2023/08/25 11:32:12;;;;;;;12.00;7.80;;;;;;;26.40;61.55;96340.39;108463;1276;22527;-81
2023/08/25 11:34:41;;;;;;;9.70;7.50;;;;;;;26.40;61.54;96343.26;108419;1276;26136;-81
2023/08/25 11:37:14;;;;;;;8.80;7.30;;;;;;;26.45;61.68;96345.29;108462;1276;24535;-81